Time;durP1;ratioP1;P1;durP2;ratioP2;P2;SDS_P1;SDS_P2;PMS_P1;PMS_P2;Temp;Humidity;BMP_temperature;BMP_pressure;BME280_temperature;BME280_humidity;BME280_pressure;Samples;Min_cycle;Max_cycle;Signal;HPM_P1;HPM_P2
2021/12/26 00:01:10;;;;;;;7.17;3.47;;;;;;;-2.26;69.12;100766.63;5034243;28;20053;-63
2021/12/26 00:03:37;;;;;;;7.83;3.83;;;;;;;-2.24;68.18;100774.31;5031848;28;20041;-63
2021/12/26 00:06:06;;;;;;;6.20;3.50;;;;;;;-2.29;67.93;100764.19;5031714;28;20056;-63
2021/12/26 00:08:33;;;;;;;6.40;3.80;;;;;;;-2.31;67.98;100759.06;5032613;28;20045;-63
2021/12/26 00:10:58;;;;;;;10.10;4.00;;;;;;;-2.30;68.39;100765.97;5033314;28;20037;-63
2021/12/26 00:13:24;;;;;;;7.43;3.70;;;;;;;-2.31;68.28;100764.25;5033794;28;20075;-62
2021/12/26 00:15:49;;;;;;;6.67;3.87;;;;;;;-2.31;68.59;100769.44;5032653;28;20057;-62
2021/12/26 00:18:15;;;;;;;8.23;3.67;;;;;;;-2.34;68.50;100764.44;5031137;28;20418;-63
2021/12/26 00:20:41;;;;;;;8.43;3.90;;;;;;;-2.36;68.94;100758.44;5033786;28;20056;-63
2021/12/26 00:23:08;;;;;;;7.10;3.70;;;;;;;-2.37;69.18;100759.38;5034176;28;20037;-63
2021/12/26 00:25:34;;;;;;;8.33;3.63;;;;;;;-2.36;69.32;100755.03;5033180;28;20095;-63
2021/12/26 00:28:00;;;;;;;7.43;3.93;;;;;;;-2.34;69.22;100748.00;5033387;28;20386;-63
2021/12/26 00:30:25;;;;;;;6.80;3.50;;;;;;;-2.37;69.17;100743.78;5033720;28;20038;-63
2021/12/26 00:32:51;;;;;;;7.27;4.10;;;;;;;-2.37;68.95;100742.97;5033863;28;20037;-63
2021/12/26 00:35:19;;;;;;;5.97;3.67;;;;;;;-2.36;68.34;100750.66;5032770;28;20033;-63
2021/12/26 00:37:44;;;;;;;7.10;3.70;;;;;;;-2.39;68.64;100743.03;5031182;28;20061;-64
2021/12/26 00:40:12;;;;;;;8.90;3.90;;;;;;;-2.35;68.50;100748.91;5033479;28;20057;-63
2021/12/26 00:42:38;;;;;;;7.97;3.87;;;;;;;-2.37;69.10;100740.38;5033951;28;20105;-63
2021/12/26 00:45:05;;;;;;;5.70;3.67;;;;;;;-2.40;69.10;100741.38;5033114;28;20124;-63
2021/12/26 00:47:32;;;;;;;5.87;3.63;;;;;;;-2.38;68.31;100730.91;5033747;28;20095;-63
2021/12/26 00:49:58;;;;;;;6.07;3.70;;;;;;;-2.40;69.03;100738.78;5033015;28;20025;-63
2021/12/26 00:52:23;;;;;;;7.67;3.73;;;;;;;-2.37;69.20;100733.41;5033056;28;20047;-63
2021/12/26 00:54:48;;;;;;;7.20;3.93;;;;;;;-2.39;69.65;100745.66;5028172;28;20029;-63
2021/12/26 00:57:14;;;;;;;8.43;4.00;;;;;;;-2.40;69.05;100743.97;5032917;28;20041;-63
2021/12/26 00:59:39;;;;;;;6.33;3.83;;;;;;;-2.39;69.27;100745.66;5030188;28;20367;-63
2021/12/26 01:02:04;;;;;;;6.73;3.63;;;;;;;-2.37;69.65;100743.78;5033221;28;20031;-63
2021/12/26 01:04:30;;;;;;;6.33;3.70;;;;;;;-2.37;69.29;100748.16;5031489;28;20041;-62
2021/12/26 01:06:55;;;;;;;7.67;3.87;;;;;;;-2.36;69.58;100748.06;5032193;28;20037;-63
2021/12/26 01:09:26;;;;;;;7.67;3.97;;;;;;;-2.32;68.72;100748.78;5031692;28;20705;-63
2021/12/26 01:11:55;;;;;;;8.80;4.23;;;;;;;-2.33;68.72;100750.53;5031722;28;20029;-63
2021/12/26 01:14:27;;;;;;;7.40;3.83;;;;;;;-2.28;69.21;100746.84;5032451;28;20029;-63
2021/12/26 01:17:02;;;;;;;6.33;3.53;;;;;;;-2.25;70.41;100757.06;5030732;28;20095;-63
2021/12/26 01:19:34;;;;;;;7.97;4.20;;;;;;;-2.23;69.38;100745.69;5031255;28;20082;-63
2021/12/26 01:21:59;;;;;;;6.23;3.97;;;;;;;-2.21;69.94;100741.22;5032267;28;20509;-62
2021/12/26 01:24:25;;;;;;;7.07;4.00;;;;;;;-2.17;70.42;100734.13;5032191;28;20029;-63
2021/12/26 01:26:50;;;;;;;6.70;4.00;;;;;;;-2.17;69.72;100734.97;5031315;28;20812;-62
2021/12/26 01:29:16;;;;;;;7.90;3.83;;;;;;;-2.18;69.19;100743.69;5029867;28;20569;-62
2021/12/26 01:31:41;;;;;;;6.63;4.00;;;;;;;-2.17;69.34;100739.34;5032238;28;20044;-63
2021/12/26 01:34:07;;;;;;;7.50;3.63;;;;;;;-2.18;69.22;100737.63;5032095;28;20515;-63
2021/12/26 01:36:34;;;;;;;9.33;4.23;;;;;;;-2.19;69.49;100729.00;5030377;28;20051;-63
2021/12/26 01:39:03;;;;;;;7.50;4.00;;;;;;;-2.17;69.29;100729.75;5031478;28;20038;-62
2021/12/26 01:41:30;;;;;;;7.43;4.07;;;;;;;-2.15;69.17;100729.69;5031824;28;20025;-62
2021/12/26 01:43:59;;;;;;;10.13;4.03;;;;;;;-2.16;69.32;100728.00;5031568;28;20022;-63
2021/12/26 01:46:28;;;;;;;7.63;3.93;;;;;;;-2.14;68.67;100723.56;5030421;28;20056;-63
2021/12/26 01:49:21;;;;;;;7.80;4.30;;;;;;;-2.10;70.14;100735.47;5031222;28;20037;-63
2021/12/26 01:51:49;;;;;;;6.95;3.90;;;;;;;-2.13;69.11;100729.63;5023867;28;20048;-63
2021/12/26 01:54:28;;;;;;;7.73;3.93;;;;;;;-2.12;68.75;100737.31;5031442;28;20056;-63
2021/12/26 01:56:53;;;;;;;6.50;4.30;;;;;;;-2.16;68.99;100735.81;5030469;28;20041;-63
2021/12/26 01:59:19;;;;;;;8.30;4.20;;;;;;;-2.14;69.33;100736.56;5028055;28;20033;-63
2021/12/26 02:01:44;;;;;;;10.07;4.40;;;;;;;-2.16;69.67;100733.22;5027588;28;20208;-63
2021/12/26 02:04:10;;;;;;;6.43;4.00;;;;;;;-2.16;69.67;100735.81;5031812;28;20437;-63
2021/12/26 02:06:35;;;;;;;7.50;4.03;;;;;;;-2.11;69.67;100733.81;5031112;28;20034;-63
2021/12/26 02:09:00;;;;;;;8.53;4.40;;;;;;;-2.13;69.43;100722.63;5031291;28;20048;-63
2021/12/26 02:11:26;;;;;;;7.40;4.10;;;;;;;-2.10;69.55;100719.88;5030944;28;20056;-63
2021/12/26 02:13:51;;;;;;;8.70;4.37;;;;;;;-2.10;69.73;100725.09;5029807;28;20124;-62
2021/12/26 02:16:17;;;;;;;7.87;4.40;;;;;;;-2.08;69.90;100727.63;5030432;28;20394;-63
2021/12/26 02:18:42;;;;;;;7.87;4.20;;;;;;;-2.11;68.91;100731.22;5031546;28;20044;-63
2021/12/26 02:24:06;;;;;;;9.50;4.50;;;;;;;-2.13;69.32;100727.84;5031899;28;20396;-63
2021/12/26 02:29:14;;;;;;;7.60;4.60;;;;;;;-2.14;69.97;100720.97;5031371;28;20060;-63
2021/12/26 02:31:40;;;;;;;7.80;4.40;;;;;;;-2.11;68.64;100712.16;5031964;28;20033;-63
2021/12/26 02:34:05;;;;;;;6.63;4.20;;;;;;;-2.14;69.16;100713.16;5031431;28;20416;-63
2021/12/26 02:36:32;;;;;;;11.07;4.07;;;;;;;-2.10;68.44;100713.84;5031068;28;20080;-63
2021/12/26 02:38:59;;;;;;;7.20;4.40;;;;;;;-2.11;69.22;100707.81;5030764;28;20039;-63
2021/12/26 02:41:24;;;;;;;10.17;4.60;;;;;;;-2.11;69.22;100697.44;5027174;28;20706;-63
2021/12/26 02:43:49;;;;;;;8.27;4.60;;;;;;;-2.10;68.62;100698.25;5027184;28;20034;-63
2021/12/26 02:46:15;;;;;;;6.87;4.33;;;;;;;-2.11;69.33;100702.63;5031023;28;20030;-63
2021/12/26 02:48:41;;;;;;;8.73;4.37;;;;;;;-2.11;69.38;100702.63;5031200;28;20029;-62
2021/12/26 02:51:07;;;;;;;8.67;4.23;;;;;;;-2.10;68.76;100709.50;5019930;28;20030;-63
2021/12/26 02:53:32;;;;;;;9.20;4.90;;;;;;;-2.10;68.60;100704.31;5030198;28;20048;-63
2021/12/26 02:55:59;;;;;;;8.43;4.43;;;;;;;-2.14;68.75;100705.38;5030975;28;20034;-63
2021/12/26 02:58:25;;;;;;;8.80;4.63;;;;;;;-2.16;68.88;100715.03;5040954;28;20056;-63
2021/12/26 03:00:56;;;;;;;10.30;4.40;;;;;;;-2.17;68.48;100708.16;5028815;28;20104;-64
2021/12/26 03:03:22;;;;;;;9.00;4.53;;;;;;;-2.14;69.90;100713.16;5028177;28;20582;-62
2021/12/26 03:05:56;;;;;;;7.40;4.47;;;;;;;-2.14;69.38;100697.59;5029375;28;20120;-63
2021/12/26 03:08:21;;;;;;;8.17;4.40;;;;;;;-2.09;69.93;100705.97;5028897;28;20566;-63
2021/12/26 03:10:47;;;;;;;8.97;4.20;;;;;;;-2.07;69.25;100704.13;5029851;28;20037;-63
2021/12/26 03:13:13;;;;;;;11.17;4.73;;;;;;;-2.13;69.04;100707.03;5029724;28;20056;-63
2021/12/26 03:15:40;;;;;;;7.80;4.30;;;;;;;-2.10;69.21;100701.69;5029716;28;20037;-62
2021/12/26 03:18:08;;;;;;;11.27;4.90;;;;;;;-2.20;69.40;100692.72;5031419;28;20075;-63
2021/12/26 03:20:39;;;;;;;8.73;4.70;;;;;;;-2.12;69.59;100694.91;5030202;28;20554;-62
2021/12/26 03:23:05;;;;;;;8.43;4.83;;;;;;;-2.16;69.39;100689.03;5028945;28;20087;-63
2021/12/26 03:25:32;;;;;;;10.70;4.77;;;;;;;-2.17;69.57;100682.16;5034291;28;20040;-63
2021/12/26 03:27:58;;;;;;;8.03;4.53;;;;;;;-2.11;69.90;100674.03;5034525;28;20067;-63
2021/12/26 03:30:27;;;;;;;9.63;4.70;;;;;;;-2.15;69.89;100669.94;5034173;28;20076;-63
2021/12/26 03:32:54;;;;;;;9.00;4.73;;;;;;;-2.18;69.77;100664.88;5034353;28;20041;-62
2021/12/26 03:35:21;;;;;;;8.13;4.50;;;;;;;-2.19;69.60;100673.59;5034207;28;20021;-63
2021/12/26 03:37:46;;;;;;;8.77;4.67;;;;;;;-2.25;70.10;100674.78;5035104;28;20025;-63
2021/12/26 03:40:12;;;;;;;8.03;4.73;;;;;;;-2.25;69.85;100679.13;5033307;28;20414;-63
2021/12/26 03:42:38;;;;;;;9.23;4.70;;;;;;;-2.31;70.35;100686.31;5027893;28;20485;-63
2021/12/26 03:45:06;;;;;;;9.00;4.33;;;;;;;-2.33;70.32;100677.78;5033599;28;20033;-62
2021/12/26 03:47:32;;;;;;;6.67;4.50;;;;;;;-2.37;69.99;100681.47;5034023;28;20128;-62
2021/12/26 03:49:58;;;;;;;7.50;4.70;;;;;;;-2.39;70.24;100685.91;5033031;28;20025;-63
2021/12/26 03:52:24;;;;;;;8.80;4.93;;;;;;;-2.41;69.90;100682.56;5034009;28;20128;-63
2021/12/26 03:54:51;;;;;;;8.10;4.60;;;;;;;-2.44;70.28;100686.16;5033383;28;20053;-63
2021/12/26 03:57:16;;;;;;;8.83;4.70;;;;;;;-2.48;70.38;100679.44;5034964;28;20104;-63
2021/12/26 03:59:41;;;;;;;8.80;4.23;;;;;;;-2.46;70.06;100679.38;5033801;28;20104;-63
2021/12/26 04:02:07;;;;;;;7.50;4.60;;;;;;;-2.49;70.64;100676.91;5033861;28;20032;-63
2021/12/26 04:04:33;;;;;;;8.03;4.50;;;;;;;-2.51;70.50;100676.16;5033712;28;20453;-62
2021/12/26 04:06:58;;;;;;;8.77;4.57;;;;;;;-2.50;70.37;100677.84;5032465;28;20045;-62
2021/12/26 04:09:23;;;;;;;9.40;4.50;;;;;;;-2.53;70.16;100678.00;5033507;28;20117;-62
2021/12/26 04:11:48;;;;;;;7.97;4.77;;;;;;;-2.58;70.23;100673.88;5033891;28;20390;-63
2021/12/26 04:14:15;;;;;;;6.47;4.23;;;;;;;-2.57;70.84;100670.38;5033460;28;20526;-62
2021/12/26 04:16:41;;;;;;;8.93;4.30;;;;;;;-2.61;70.87;100671.44;5033755;28;20030;-63
2021/12/26 04:19:06;;;;;;;8.93;4.73;;;;;;;-2.60;70.58;100673.16;5033077;28;20030;-63
2021/12/26 04:21:31;;;;;;;8.17;4.53;;;;;;;-2.61;70.63;100679.22;5031918;28;20082;-63
2021/12/26 04:23:57;;;;;;;8.80;4.90;;;;;;;-2.62;71.06;100677.56;5034322;28;20064;-63
2021/12/26 04:26:23;;;;;;;9.10;4.50;;;;;;;-2.64;71.46;100669.03;5030677;28;20448;-63
2021/12/26 04:28:48;;;;;;;10.03;4.70;;;;;;;-2.63;71.59;100670.69;5033505;28;20052;-63
2021/12/26 04:31:15;;;;;;;10.60;5.07;;;;;;;-2.66;70.55;100672.63;5033945;28;20112;-63
2021/12/26 04:33:41;;;;;;;10.13;4.80;;;;;;;-2.68;71.35;100669.28;5027132;28;20037;-63
2021/12/26 04:36:06;;;;;;;9.63;4.63;;;;;;;-2.70;71.82;100670.16;5032970;28;20091;-62
2021/12/26 04:38:31;;;;;;;9.87;4.63;;;;;;;-2.67;71.59;100668.34;5032427;28;20124;-63
2021/12/26 04:40:57;;;;;;;8.03;4.60;;;;;;;-2.70;72.25;100661.56;5031830;28;20127;-63
2021/12/26 04:43:24;;;;;;;7.07;4.30;;;;;;;-2.70;72.37;100659.78;5031542;28;20033;-63
2021/12/26 04:45:49;;;;;;;9.30;5.07;;;;;;;-2.70;71.74;100664.97;5031444;28;20448;-62
2021/12/26 04:48:15;;;;;;;10.27;5.20;;;;;;;-2.74;71.57;100657.44;5032624;28;20029;-62
2021/12/26 04:50:41;;;;;;;8.57;4.83;;;;;;;-2.74;72.43;100662.63;5031258;28;20025;-63
2021/12/26 04:53:07;;;;;;;8.67;4.93;;;;;;;-2.72;71.13;100653.00;5030852;28;20479;-63
2021/12/26 04:55:32;;;;;;;7.73;4.87;;;;;;;-2.74;71.24;100647.91;5028807;28;20061;-63
2021/12/26 04:57:58;;;;;;;13.60;4.73;;;;;;;-2.80;71.88;100657.75;5031667;28;20021;-63
2021/12/26 05:00:28;;;;;;;10.07;4.87;;;;;;;-2.85;71.36;100653.63;5030247;28;20115;-62
2021/12/26 05:02:55;;;;;;;6.53;4.73;;;;;;;-2.85;72.10;100655.41;5030112;28;20478;-62
2021/12/26 05:05:21;;;;;;;9.93;4.97;;;;;;;-2.87;71.64;100660.66;5026505;28;20107;-63
2021/12/26 05:07:47;;;;;;;9.17;4.90;;;;;;;-2.88;71.90;100660.72;5028000;28;20037;-63
2021/12/26 05:10:15;;;;;;;10.57;4.83;;;;;;;-2.91;72.31;100661.72;5030756;28;20070;-63
2021/12/26 05:12:40;;;;;;;8.47;4.87;;;;;;;-2.93;72.17;100652.34;5030666;28;20026;-63
2021/12/26 05:15:07;;;;;;;9.37;4.77;;;;;;;-2.94;72.64;100646.31;5029771;28;20029;-63
2021/12/26 05:17:33;;;;;;;9.93;5.03;;;;;;;-2.92;72.18;100643.66;5030412;28;20037;-62
2021/12/26 05:19:59;;;;;;;8.77;4.87;;;;;;;-2.91;72.16;100655.72;5030833;28;20047;-63
2021/12/26 05:22:25;;;;;;;8.20;5.00;;;;;;;-2.92;72.49;100648.84;5029754;28;20482;-63
2021/12/26 05:24:50;;;;;;;8.17;4.80;;;;;;;-2.97;71.86;100649.06;5030534;28;20056;-63
2021/12/26 05:27:16;;;;;;;7.67;4.90;;;;;;;-2.96;72.52;100642.97;5030676;28;20107;-63
2021/12/26 05:29:41;;;;;;;7.90;4.73;;;;;;;-2.97;72.59;100641.28;5029254;28;20038;-62
2021/12/26 05:32:07;;;;;;;8.77;4.80;;;;;;;-2.97;72.84;100646.47;5030634;28;20033;-63
2021/12/26 05:34:32;;;;;;;9.07;4.67;;;;;;;-3.03;72.11;100644.19;5028153;28;20086;-62
2021/12/26 05:36:58;;;;;;;8.27;5.00;;;;;;;-3.03;72.11;100633.81;5031261;28;20040;-63
2021/12/26 05:39:23;;;;;;;9.93;5.10;;;;;;;-3.06;72.55;100636.59;5029021;28;20482;-63
2021/12/26 05:41:48;;;;;;;8.77;4.73;;;;;;;-3.07;73.19;100630.53;5027656;28;20045;-62
2021/12/26 05:44:13;;;;;;;9.27;4.80;;;;;;;-3.09;72.65;100624.59;5027049;28;20359;-63
2021/12/26 05:46:39;;;;;;;9.00;4.77;;;;;;;-3.08;72.46;100628.00;5027261;28;20399;-62
2021/12/26 05:49:04;;;;;;;8.00;4.73;;;;;;;-3.08;72.28;100628.00;5024154;28;20025;-63
2021/12/26 05:51:30;;;;;;;10.97;4.83;;;;;;;-3.09;72.55;100623.75;5029357;28;20041;-62
2021/12/26 05:53:55;;;;;;;8.17;5.20;;;;;;;-3.17;72.65;100624.97;5027957;28;20040;-63
2021/12/26 05:56:20;;;;;;;8.13;4.63;;;;;;;-3.16;72.58;100621.47;5028765;28;20037;-63
2021/12/26 05:58:46;;;;;;;10.97;5.17;;;;;;;-3.14;72.83;100617.06;5030194;28;20159;-63
2021/12/26 06:01:11;;;;;;;9.73;4.97;;;;;;;-3.13;72.64;100610.94;5029171;28;20037;-62
2021/12/26 06:03:37;;;;;;;9.20;4.50;;;;;;;-3.18;72.77;100612.94;5029400;28;20044;-63
2021/12/26 06:06:03;;;;;;;8.03;4.93;;;;;;;-3.19;72.85;100616.44;5031389;28;20030;-63
2021/12/26 06:08:28;;;;;;;9.07;5.43;;;;;;;-3.20;73.40;100614.78;5043859;28;20477;-63
2021/12/26 06:10:53;;;;;;;9.23;5.00;;;;;;;-3.20;73.20;100619.97;5029272;28;20045;-63
2021/12/26 06:13:18;;;;;;;9.10;4.80;;;;;;;-3.22;73.63;100611.41;5030494;28;20475;-63
2021/12/26 06:15:43;;;;;;;9.17;5.03;;;;;;;-3.25;73.69;100606.38;5026946;28;20037;-63
2021/12/26 06:18:09;;;;;;;8.87;4.87;;;;;;;-3.26;73.19;100609.91;5030325;28;20030;-63
2021/12/26 06:20:34;;;;;;;11.43;5.03;;;;;;;-3.29;73.83;100604.84;5029636;28;20056;-62
2021/12/26 06:22:59;;;;;;;8.83;5.23;;;;;;;-3.32;73.45;100605.03;5029826;28;20493;-62
2021/12/26 06:25:25;;;;;;;9.87;5.13;;;;;;;-3.30;73.50;100610.97;5029294;28;20044;-62
2021/12/26 06:27:50;;;;;;;9.80;4.70;;;;;;;-3.30;73.50;100608.38;5030455;28;20029;-62
2021/12/26 06:30:16;;;;;;;8.53;4.87;;;;;;;-3.31;73.92;100623.09;5030639;28;20524;-62
2021/12/26 06:32:42;;;;;;;10.30;5.43;;;;;;;-3.34;73.93;100614.63;5029514;28;20042;-63
2021/12/26 06:35:08;;;;;;;9.93;5.23;;;;;;;-3.33;73.72;100619.75;5026208;28;20382;-61
2021/12/26 06:37:34;;;;;;;10.43;5.43;;;;;;;-3.35;73.92;100615.53;5022649;28;20087;-62
2021/12/26 06:40:00;;;;;;;9.70;5.03;;;;;;;-3.35;73.74;100621.56;5032312;28;20112;-62
2021/12/26 06:42:28;;;;;;;9.07;5.07;;;;;;;-3.37;74.28;100618.19;5027739;28;20593;-62
2021/12/26 06:44:53;;;;;;;9.10;5.17;;;;;;;-3.33;74.19;100629.25;5032414;28;20083;-61
2021/12/26 06:47:18;;;;;;;9.73;5.23;;;;;;;-3.31;74.00;100624.84;5025148;28;20030;-61
2021/12/26 06:49:43;;;;;;;11.23;5.40;;;;;;;-3.32;74.13;100625.78;5018901;28;20045;-61
2021/12/26 06:52:09;;;;;;;8.40;5.33;;;;;;;-3.34;74.25;100627.59;5020639;28;20034;-62
2021/12/26 06:54:36;;;;;;;9.80;5.10;;;;;;;-3.35;74.23;100624.16;5021988;28;20108;-62
2021/12/26 06:57:02;;;;;;;9.60;4.97;;;;;;;-3.33;73.86;100634.44;5023518;28;20025;-62
2021/12/26 06:59:28;;;;;;;11.80;5.77;;;;;;;-3.37;73.98;100623.38;5022104;28;20140;-62
2021/12/26 07:01:53;;;;;;;9.23;5.23;;;;;;;-3.39;74.01;100620.88;5030092;28;20036;-62
2021/12/26 07:04:18;;;;;;;9.63;5.37;;;;;;;-3.36;74.34;100619.06;5027373;28;20445;-61
2021/12/26 07:06:44;;;;;;;10.77;5.17;;;;;;;-3.36;74.87;100616.47;5027079;28;20042;-62
2021/12/26 07:09:09;;;;;;;10.17;5.23;;;;;;;-3.39;74.39;100610.50;5023486;28;20045;-62
2021/12/26 07:11:34;;;;;;;10.40;5.63;;;;;;;-3.39;74.04;100618.28;5027720;28;20398;-62
2021/12/26 07:13:59;;;;;;;10.23;5.50;;;;;;;-3.38;74.39;100616.53;5027510;28;20038;-62
2021/12/26 07:16:25;;;;;;;10.90;5.30;;;;;;;-3.35;74.81;100612.94;5026794;28;20168;-61
2021/12/26 07:18:50;;;;;;;9.37;5.30;;;;;;;-3.36;74.71;100617.28;5041848;28;20033;-62
2021/12/26 07:21:17;;;;;;;10.00;5.60;;;;;;;-3.36;74.74;100616.47;5028571;28;20034;-61
2021/12/26 07:23:43;;;;;;;10.60;5.70;;;;;;;-3.36;75.12;100619.06;5021726;28;20492;-62
2021/12/26 07:26:08;;;;;;;9.70;5.50;;;;;;;-3.39;74.47;100620.88;5026893;28;20160;-62
2021/12/26 07:28:34;;;;;;;11.80;5.70;;;;;;;-3.37;75.21;100618.19;5025366;28;20166;-62
2021/12/26 07:30:59;;;;;;;11.30;5.70;;;;;;;-3.36;75.26;100619.06;5026505;28;20082;-62
2021/12/26 07:33:25;;;;;;;8.70;5.30;;;;;;;-3.36;74.93;100613.88;5023683;28;20082;-62
2021/12/26 07:35:50;;;;;;;10.63;5.50;;;;;;;-3.35;74.94;100611.22;5028590;28;20118;-62
2021/12/26 07:38:18;;;;;;;14.17;6.20;;;;;;;-3.34;75.28;100612.03;5026146;28;20030;-62
2021/12/26 07:40:44;;;;;;;10.23;5.80;;;;;;;-3.41;74.95;100609.75;5026748;28;20160;-61
2021/12/26 07:43:09;;;;;;;11.57;5.77;;;;;;;-3.40;75.45;100608.00;5025542;28;20124;-62
2021/12/26 07:45:34;;;;;;;10.43;5.50;;;;;;;-3.40;75.65;100615.78;5025121;28;20166;-62
2021/12/26 07:47:59;;;;;;;14.67;6.13;;;;;;;-3.43;75.50;100614.19;5027213;28;20080;-62
2021/12/26 07:50:26;;;;;;;12.00;5.80;;;;;;;-3.46;75.56;100613.50;5023263;28;20029;-62
2021/12/26 07:52:53;;;;;;;13.17;6.20;;;;;;;-3.43;75.92;100608.13;5025113;28;20033;-62
2021/12/26 07:55:18;;;;;;;10.63;5.70;;;;;;;-3.41;76.11;100617.53;5024250;28;20033;-61
2021/12/26 07:57:48;;;;;;;11.00;5.77;;;;;;;-3.44;75.76;100612.50;5025344;28;20147;-62
2021/12/26 08:00:15;;;;;;;12.27;6.23;;;;;;;-3.43;76.01;100619.38;5024074;28;20084;-62
2021/12/26 08:02:40;;;;;;;16.27;6.47;;;;;;;-3.42;76.21;100631.41;5027565;28;20045;-62
2021/12/26 08:05:06;;;;;;;12.97;6.57;;;;;;;-3.41;76.24;100627.88;5024967;28;20470;-62
2021/12/26 08:07:33;;;;;;;13.43;6.60;;;;;;;-3.39;76.63;100631.25;5025260;28;20040;-62
2021/12/26 08:09:58;;;;;;;10.40;6.13;;;;;;;-3.35;75.95;100625.91;5021642;28;20505;-62
2021/12/26 08:12:23;;;;;;;13.33;6.60;;;;;;;-3.35;76.25;100629.34;5027442;28;20261;-63
2021/12/26 08:14:49;;;;;;;12.47;6.53;;;;;;;-3.33;76.61;100624.06;5026066;28;20124;-62
2021/12/26 08:17:14;;;;;;;13.43;6.77;;;;;;;-3.31;76.45;100623.09;5027879;28;20038;-62
2021/12/26 08:19:40;;;;;;;11.73;6.27;;;;;;;-3.29;76.50;100620.41;5024051;28;20403;-62
2021/12/26 08:22:05;;;;;;;14.37;6.67;;;;;;;-3.21;77.08;100625.22;5022331;28;20037;-62
2021/12/26 08:24:30;;;;;;;12.47;6.73;;;;;;;-3.20;76.71;100629.50;5026817;28;20026;-60
2021/12/26 08:26:56;;;;;;;11.23;6.33;;;;;;;-3.15;76.43;100630.94;5025416;28;20033;-62
2021/12/26 08:29:23;;;;;;;13.53;6.27;;;;;;;-3.08;77.18;100628.88;5025544;28;20264;-62
2021/12/26 08:31:53;;;;;;;12.47;6.47;;;;;;;-3.12;76.86;100607.44;5022307;28;20057;-62
2021/12/26 08:34:21;;;;;;;11.93;6.43;;;;;;;-3.02;76.68;100617.31;5026322;28;20033;-61
2021/12/26 08:36:58;;;;;;;12.33;6.83;;;;;;;-2.99;76.82;100619.78;5027800;28;20040;-61
2021/12/26 08:39:25;;;;;;;10.73;6.40;;;;;;;-2.95;76.28;100617.84;5023488;28;20034;-62
2021/12/26 08:41:51;;;;;;;13.80;7.07;;;;;;;-2.90;76.72;100621.91;5023681;28;20088;-61
2021/12/26 08:44:16;;;;;;;13.77;7.10;;;;;;;-2.86;76.83;100618.22;5026587;28;20029;-63
2021/12/26 08:46:43;;;;;;;14.60;7.03;;;;;;;-2.82;77.11;100615.47;5024907;28;20022;-62
2021/12/26 08:49:09;;;;;;;14.30;6.77;;;;;;;-2.76;77.24;100617.75;5024038;28;20025;-61
2021/12/26 08:51:34;;;;;;;14.77;7.03;;;;;;;-2.71;76.65;100615.75;5023334;28;20449;-59
2021/12/26 08:54:01;;;;;;;13.37;6.73;;;;;;;-2.66;76.74;100605.97;5025947;28;20041;-59
2021/12/26 08:56:26;;;;;;;13.43;6.70;;;;;;;-2.63;76.48;100616.16;5027064;28;20026;-59
2021/12/26 08:58:52;;;;;;;13.27;6.87;;;;;;;-2.62;76.57;100604.88;5023870;28;20034;-59
2021/12/26 09:01:17;;;;;;;12.37;6.70;;;;;;;-2.58;76.80;100606.38;5025301;28;20029;-60
2021/12/26 09:03:42;;;;;;;14.03;6.97;;;;;;;-2.53;77.17;100619.13;5023857;28;20425;-59
2021/12/26 09:06:07;;;;;;;11.97;6.97;;;;;;;-2.49;77.36;100614.59;5023688;28;20032;-60
2021/12/26 09:08:33;;;;;;;12.10;6.90;;;;;;;-2.44;76.76;100612.59;5022957;28;20147;-60
2021/12/26 09:10:58;;;;;;;14.70;7.13;;;;;;;-2.41;76.90;100596.84;5022837;28;20068;-59
2021/12/26 09:13:23;;;;;;;13.63;7.30;;;;;;;-2.38;77.06;100596.69;5022544;28;20092;-59
2021/12/26 09:15:49;;;;;;;14.43;7.30;;;;;;;-2.38;76.99;100607.06;5022418;28;20387;-59
2021/12/26 09:18:14;;;;;;;13.80;7.50;;;;;;;-2.34;77.38;100603.38;5024257;28;20485;-60
2021/12/26 09:20:39;;;;;;;13.50;7.37;;;;;;;-2.31;77.06;100605.81;5023996;28;20041;-59
2021/12/26 09:23:05;;;;;;;13.87;7.27;;;;;;;-2.25;77.57;100598.59;5024115;28;20037;-59
2021/12/26 09:25:30;;;;;;;14.67;6.93;;;;;;;-2.22;77.24;100601.03;5020343;28;20115;-59
2021/12/26 09:27:56;;;;;;;14.43;7.43;;;;;;;-2.20;76.85;100609.59;5025352;28;20475;-63
2021/12/26 09:30:21;;;;;;;15.67;7.67;;;;;;;-2.17;77.24;100609.44;5024600;28;20032;-63
2021/12/26 09:32:46;;;;;;;14.87;7.47;;;;;;;-2.16;76.96;100605.91;5023461;28;20520;-62
2021/12/26 09:35:13;;;;;;;15.40;7.47;;;;;;;-2.11;77.52;100608.22;5020204;28;20037;-63
2021/12/26 09:37:38;;;;;;;13.53;7.03;;;;;;;-2.08;77.45;100608.91;5024704;28;20493;-63
2021/12/26 09:40:04;;;;;;;14.23;7.63;;;;;;;-2.05;77.67;100613.94;5020655;28;20038;-63
2021/12/26 09:42:30;;;;;;;15.30;7.63;;;;;;;-2.04;77.35;100610.41;5025994;28;20026;-63
2021/12/26 09:44:58;;;;;;;17.20;7.73;;;;;;;-1.99;77.53;100612.75;5024298;28;20032;-63
2021/12/26 09:47:23;;;;;;;12.37;7.03;;;;;;;-1.94;77.82;100620.28;5019451;28;20029;-58
2021/12/26 09:49:49;;;;;;;15.63;7.87;;;;;;;-1.93;77.50;100619.38;5024319;28;20373;-60
2021/12/26 09:52:14;;;;;;;20.47;8.23;;;;;;;-1.88;77.87;100616.53;5023576;28;20108;-58
2021/12/26 09:54:39;;;;;;;14.10;7.93;;;;;;;-1.82;77.98;100614.38;5024466;28;20029;-57
2021/12/26 09:57:05;;;;;;;15.53;7.80;;;;;;;-1.74;77.76;100615.75;5024720;28;20108;-59
2021/12/26 09:59:31;;;;;;;14.67;7.73;;;;;;;-1.74;78.12;100611.38;5027195;28;20021;-58
2021/12/26 10:02:05;;;;;;;14.70;8.03;;;;;;;-1.73;78.29;100601.81;5029050;28;20394;-59
2021/12/26 10:04:33;;;;;;;15.90;7.90;;;;;;;-1.66;77.95;100598.78;5028412;28;20072;-59
2021/12/26 10:07:00;;;;;;;15.03;8.20;;;;;;;-1.60;78.07;100596.72;5028202;28;20114;-60
2021/12/26 10:09:27;;;;;;;16.47;8.47;;;;;;;-1.58;78.50;100590.50;5025720;28;20044;-59
2021/12/26 10:11:54;;;;;;;14.83;8.17;;;;;;;-1.61;78.05;100575.09;5032589;28;20056;-59
2021/12/26 10:14:38;;;;;;;16.57;8.37;;;;;;;-1.47;78.67;100576.06;5023786;28;20509;-60
2021/12/26 10:17:11;;;;;;;14.73;8.70;;;;;;;-1.46;77.86;100572.53;5019557;28;20125;-59
2021/12/26 10:19:41;;;;;;;;;;;;;;;-1.37;78.45;100572.81;5019160;28;20504;-59
2021/12/26 10:22:10;;;;;;;18.60;8.13;;;;;;;-1.43;77.97;100567.16;5021095;28;20390;-60
2021/12/26 10:24:38;;;;;;;16.37;8.27;;;;;;;-1.36;78.44;100569.31;5019686;28;20025;-66
2021/12/26 10:27:11;;;;;;;14.70;8.27;;;;;;;-1.36;78.19;100571.06;5026027;28;20056;-61
2021/12/26 10:29:40;;;;;;;;;;;;;;;-1.26;77.89;100567.00;5028566;28;20033;-60
2021/12/26 10:32:09;;;;;;;18.43;8.23;;;;;;;-1.26;77.43;100558.34;5026949;28;19917;-60
2021/12/26 10:34:42;;;;;;;18.03;8.30;;;;;;;-1.28;77.92;100550.63;5028960;28;20072;-60
2021/12/26 10:37:12;;;;;;;15.68;8.40;;;;;;;-1.26;78.29;100554.00;5022667;28;20478;-61
2021/12/26 10:39:45;;;;;;;15.77;8.60;;;;;;;-1.26;78.10;100548.78;5020579;28;20033;-61
2021/12/26 10:42:19;;;;;;;16.23;8.67;;;;;;;-1.29;78.01;100548.94;5027750;28;20022;-61
2021/12/26 10:44:47;;;;;;;16.57;9.13;;;;;;;-1.29;78.49;100548.13;5025838;28;20037;-61
2021/12/26 10:47:18;;;;;;;17.50;9.30;;;;;;;-1.22;79.01;100545.06;5027645;28;20037;-61
2021/12/26 10:49:48;;;;;;;18.23;9.40;;;;;;;-1.17;79.09;100543.94;5025760;28;20032;-60
2021/12/26 10:52:19;;;;;;;17.93;9.33;;;;;;;-1.13;78.19;100542.84;5022069;28;20449;-60
2021/12/26 10:54:50;;;;;;;15.50;8.87;;;;;;;-1.12;78.53;100540.16;5029292;28;20048;-61
2021/12/26 10:57:26;;;;;;;15.63;9.00;;;;;;;-1.11;78.84;100536.63;5022623;28;20030;-61
2021/12/26 11:00:17;;;;;;;19.13;9.67;;;;;;;-1.03;78.74;100543.94;5026258;28;20041;-60
2021/12/26 11:02:50;;;;;;;18.50;9.10;;;;;;;-0.98;79.03;100547.09;5029529;28;20128;-61
2021/12/26 11:05:22;;;;;;;21.27;9.70;;;;;;;-0.95;79.20;100536.50;5020968;28;20041;-61
2021/12/26 11:07:55;;;;;;;17.83;9.23;;;;;;;-0.90;79.04;100522.38;5020627;28;20822;-61
2021/12/26 11:10:27;;;;;;;17.90;9.70;;;;;;;-0.86;79.84;100527.31;5028014;28;20037;-61
2021/12/26 11:12:57;;;;;;;19.47;9.70;;;;;;;-0.85;78.88;100515.09;5025442;28;20410;-60
2021/12/26 11:15:28;;;;;;;18.00;9.63;;;;;;;-0.82;78.89;100520.97;5020204;28;20048;-61
2021/12/26 11:18:03;;;;;;;17.70;9.90;;;;;;;-0.78;79.01;100521.63;5025272;28;20591;-61
2021/12/26 11:20:35;;;;;;;18.60;9.17;;;;;;;-0.77;78.96;100528.50;5029285;28;20112;-60
2021/12/26 11:23:10;;;;;;;18.90;10.17;;;;;;;-0.79;79.54;100519.09;5027865;28;20519;-61
2021/12/26 11:25:41;;;;;;;17.00;9.97;;;;;;;-0.71;79.78;100527.28;5028210;28;20034;-61